Main page
METAR-TAF:

METAR-TAF

Airports :

Chester Airport

Chester, Connecticut, United States

latitude: 41-23-02N, longitude: 072-30-21W, elevation: 417 ft

Current weather observation

The report was made 12 minutes ago, at 02:15 UTC
Wind 9 mph from the Northwest
Temperature 27°F
Humidity 54%
Pressure 30.45 in. Hg
Visibility: 10 miles
Clear sky

METAR: KSNC 080215Z AUTO 32008KT 10SM CLR M03/M11 A3045 RMK AO2

Time: 21:27 (02:27 UTC)


TAF: missing

Weather observations and forecasts of more than 4000 airports (METAR and TAF reports).

The available stations are represented by yellow and red dots on the map.

Hover mouse over dot to see the name of the station.

Then click to see weather observations and forecasts.

To change the map : click on the green buttons with a black cross to zoom in, on the green button with a dash to zoom out, or on the green arrows for adjacent maps.


METAR-TAF: